Dong Fang Chun — BRZL — position and weather

sailwx.info

Track history (hours):
 
Tides and Currents Weather Stations Pressure Air Temp Water Temp Dewpoint Dewpoint Depression Visibility Wind Speed Wind Dir Waves Ship Positions

Dong Fang Chun

Last reported at 2015-Jun-26 00:33 UTC. Time now 2015-Jul-01 06:32 UTC.
Position N 22°29' E 113°55'.

Length 23 m; draft 1.4 m.

Type: High speed craft. MMSI: 412461320.

Date/timePositionNaut miles runAvg speedWind from/ knotsBaromVisibWave heightAir tempDewpointWater temp
2015-Jun-26 00:33N 22°29' E 113°55'0 0.0
2015-Jun-25 23:33N 22°29' E 113°55'0 0.0
2015-Jun-25 11:22N 22°29' E 113°55'1918.4
2015-Jun-25 10:19N 22°16' E 113°39'1910.9
2015-Jun-25 08:33N 22°28' E 113°55'2215.8
2015-Jun-25 07:09N 22°14' E 113°36'2214.2
2015-Jun-25 05:33N 22°29' E 113°55'2119.5
2015-Jun-25 04:29N 22°15' E 113°37'1814.4
2015-Jun-25 03:12N 22°26' E 113°53'2110.3
2015-Jun-25 01:13N 22°14' E 113°35'1420.5
2015-Jun-25 00:33N 22°21' E 113°48'10 9.8
2015-Jun-24 23:33N 22°29' E 113°55'23 1.9
2015-Jun-24 11:24N 22°14' E 113°35'2021.0
2015-Jun-24 10:26N 22°26' E 113°53'3 0.7
2015-Jun-24 06:33N 22°29' E 113°55'0 0.2
2015-Jun-24 05:33N 22°29' E 113°55'0 0.0
2015-Jun-24 04:06N 22°29' E 113°55'0 0.0
2015-Jun-24 03:32N 22°29' E 113°55'0 0.0
2015-Jun-24 02:33N 22°29' E 113°55'0 0.0
2015-Jun-24 01:32N 22°29' E 113°55'0 0.0
2015-Jun-24 00:33N 22°29' E 113°55'1 0.0
2015-Jun-22 11:33N 22°28' E 113°55'2 0.5
2015-Jun-22 06:32N 22°26' E 113°53'7 1.3
2015-Jun-22 01:13N 22°22' E 113°47'1014.9
2015-Jun-22 00:33N 22°29' E 113°55'0 0.0
2015-Jun-21 23:33N 22°29' E 113°55'1 0.1
2015-Jun-21 14:34N 22°28' E 113°55'2315.8
2015-Jun-21 13:07N 22°14' E 113°36'2022.0
2015-Jun-21 12:13N 22°26' E 113°53'2 2.5
2015-Jun-21 11:33N 22°27' E 113°54'2 0.5
2015-Jun-21 08:33N 22°29' E 113°55'0 0.0
2015-Jun-21 07:32N 22°29' E 113°55'0 0.0
2015-Jun-21 06:33N 22°29' E 113°55'2215.0
2015-Jun-21 05:04N 22°14' E 113°36'1 1.3
2015-Jun-21 04:33N 22°15' E 113°36'2120.9
2015-Jun-21 03:32N 22°28' E 113°55'2016.3
2015-Jun-21 02:18N 22°15' E 113°38'1110.5
2015-Jun-21 01:14N 22°22' E 113°47'914.2
2015-Jun-21 00:33N 22°29' E 113°55'0 0.0
2015-Jun-20 23:33N 22°29' E 113°55'0 0.0
2015-Jun-20 14:24N 22°29' E 113°55'1919.9
2015-Jun-20 13:26N 22°16' E 113°39'1713.4
2015-Jun-20 12:11N 22°26' E 113°53'2 3.7
2015-Jun-20 11:33N 22°28' E 113°55'1 0.3
2015-Jun-20 08:33N 22°29' E 113°55'2320.3
2015-Jun-20 07:25N 22°14' E 113°35'2017.8
2015-Jun-20 06:17N 22°26' E 113°53'2011.1
2015-Jun-20 04:31N 22°14' E 113°36'2020.9
2015-Jun-20 03:33N 22°26' E 113°53'2010.0
2015-Jun-20 01:30N 22°14' E 113°35'2020.2
2015-Jun-20 00:31N 22°26' E 113°53'3 3.4
2015-Jun-19 23:33N 22°29' E 113°55'19 1.2
2015-Jun-19 07:19N 22°16' E 113°39'1911.0
2015-Jun-19 05:33N 22°29' E 113°55'2220.1
2015-Jun-19 04:27N 22°14' E 113°36'1915.3
2015-Jun-19 03:11N 22°26' E 113°53'1 0.5
2015-Jun-19 00:18N 22°25' E 113°52'4 6.0
2015-Jun-18 23:33N 22°29' E 113°55'0 0.0
2015-Jun-18 22:33N 22°29' E 113°55'4 0.4
2015-Jun-18 11:33N 22°25' E 113°52'18 9.2
2015-Jun-18 09:33N 22°15' E 113°36'2222.0
2015-Jun-18 08:33N 22°28' E 113°55'2115.8
2015-Jun-18 07:15N 22°15' E 113°38'2112.1
2015-Jun-18 05:33N 22°29' E 113°55'2120.2
2015-Jun-18 04:32N 22°15' E 113°38'1813.4
2015-Jun-18 03:11N 22°26' E 113°54'0 0.5
2015-Jun-18 02:34N 22°27' E 113°54'2116.0
2015-Jun-18 01:14N 22°14' E 113°35'1920.0
2015-Jun-18 00:16N 22°25' E 113°52'4 5.5
2015-Jun-17 23:33N 22°29' E 113°55'4 0.3
2015-Jun-17 11:32N 22°26' E 113°52'4 1.2
2015-Jun-17 08:33N 22°29' E 113°55'2015.8
2015-Jun-17 07:17N 22°16' E 113°38'8 8.4
2015-Jun-17 06:19N 22°20' E 113°46'1215.5
2015-Jun-17 05:33N 22°28' E 113°55'2221.6
2015-Jun-17 04:32N 22°14' E 113°36'2014.6
2015-Jun-17 03:11N 22°26' E 113°53'0 0.4
2015-Jun-17 02:33N 22°26' E 113°53'0 0.0
2015-Jun-17 00:13N 22°26' E 113°53'3 4.1
2015-Jun-16 23:33N 22°29' E 113°55'0 0.0
2015-Jun-16 22:33N 22°29' E 113°55'3 0.3
2015-Jun-16 11:33N 22°26' E 113°53'3 0.9
2015-Jun-16 08:33N 22°28' E 113°55'2015.6
2015-Jun-16 07:16N 22°16' E 113°38'1 1.4
2015-Jun-16 06:29N 22°16' E 113°39'1920.3
2015-Jun-16 05:33N 22°29' E 113°55'2019.0
2015-Jun-16 04:30N 22°16' E 113°38'1713.0
2015-Jun-16 03:12N 22°26' E 113°53'0 0.7
2015-Jun-16 02:34N 22°26' E 113°53'2015.1
2015-Jun-16 01:12N 22°14' E 113°35'  
Track history (hours):
 
Tides and Currents Weather Stations Pressure Air Temp Water Temp Dewpoint Dewpoint Depression Visibility Wind Speed Wind Dir Waves Ship Positions

Dong Fang Chun

Last reported at 2015-Jun-26 00:33 UTC. Time now 2015-Jul-01 06:32 UTC.
Position N 22°29' E 113°55'.

Length 23 m; draft 1.4 m.

Type: High speed craft. MMSI: 412461320.

Date/timePositionNaut miles runAvg speedWind from/ knotsBaromVisibWave heightAir tempDewpointWater temp
2015-Jun-26 00:33N 22°29' E 113°55'0 0.0
2015-Jun-25 23:33N 22°29' E 113°55'0 0.0
2015-Jun-25 11:22N 22°29' E 113°55'1918.4
2015-Jun-25 10:19N 22°16' E 113°39'1910.9
2015-Jun-25 08:33N 22°28' E 113°55'2215.8
2015-Jun-25 07:09N 22°14' E 113°36'2214.2
2015-Jun-25 05:33N 22°29' E 113°55'2119.5
2015-Jun-25 04:29N 22°15' E 113°37'1814.4
2015-Jun-25 03:12N 22°26' E 113°53'2110.3
2015-Jun-25 01:13N 22°14' E 113°35'1420.5
2015-Jun-25 00:33N 22°21' E 113°48'10 9.8
2015-Jun-24 23:33N 22°29' E 113°55'23 1.9
2015-Jun-24 11:24N 22°14' E 113°35'2021.0
2015-Jun-24 10:26N 22°26' E 113°53'3 0.7
2015-Jun-24 06:33N 22°29' E 113°55'0 0.2
2015-Jun-24 05:33N 22°29' E 113°55'0 0.0
2015-Jun-24 04:06N 22°29' E 113°55'0 0.0
2015-Jun-24 03:32N 22°29' E 113°55'0 0.0
2015-Jun-24 02:33N 22°29' E 113°55'0 0.0
2015-Jun-24 01:32N 22°29' E 113°55'0 0.0
2015-Jun-24 00:33N 22°29' E 113°55'1 0.0
2015-Jun-22 11:33N 22°28' E 113°55'2 0.5
2015-Jun-22 06:32N 22°26' E 113°53'7 1.3
2015-Jun-22 01:13N 22°22' E 113°47'1014.9
2015-Jun-22 00:33N 22°29' E 113°55'0 0.0
2015-Jun-21 23:33N 22°29' E 113°55'1 0.1
2015-Jun-21 14:34N 22°28' E 113°55'2315.8
2015-Jun-21 13:07N 22°14' E 113°36'2022.0
2015-Jun-21 12:13N 22°26' E 113°53'2 2.5
2015-Jun-21 11:33N 22°27' E 113°54'2 0.5
2015-Jun-21 08:33N 22°29' E 113°55'0 0.0
2015-Jun-21 07:32N 22°29' E 113°55'0 0.0
2015-Jun-21 06:33N 22°29' E 113°55'2215.0
2015-Jun-21 05:04N 22°14' E 113°36'1 1.3
2015-Jun-21 04:33N 22°15' E 113°36'2120.9
2015-Jun-21 03:32N 22°28' E 113°55'2016.3
2015-Jun-21 02:18N 22°15' E 113°38'1110.5
2015-Jun-21 01:14N 22°22' E 113°47'914.2
2015-Jun-21 00:33N 22°29' E 113°55'0 0.0
2015-Jun-20 23:33N 22°29' E 113°55'0 0.0
2015-Jun-20 14:24N 22°29' E 113°55'1919.9
2015-Jun-20 13:26N 22°16' E 113°39'1713.4
2015-Jun-20 12:11N 22°26' E 113°53'2 3.7
2015-Jun-20 11:33N 22°28' E 113°55'1 0.3
2015-Jun-20 08:33N 22°29' E 113°55'2320.3
2015-Jun-20 07:25N 22°14' E 113°35'2017.8
2015-Jun-20 06:17N 22°26' E 113°53'2011.1
2015-Jun-20 04:31N 22°14' E 113°36'2020.9
2015-Jun-20 03:33N 22°26' E 113°53'2010.0
2015-Jun-20 01:30N 22°14' E 113°35'2020.2
2015-Jun-20 00:31N 22°26' E 113°53'3 3.4
2015-Jun-19 23:33N 22°29' E 113°55'19 1.2
2015-Jun-19 07:19N 22°16' E 113°39'1911.0
2015-Jun-19 05:33N 22°29' E 113°55'2220.1
2015-Jun-19 04:27N 22°14' E 113°36'1915.3
2015-Jun-19 03:11N 22°26' E 113°53'1 0.5
2015-Jun-19 00:18N 22°25' E 113°52'4 6.0
2015-Jun-18 23:33N 22°29' E 113°55'0 0.0
2015-Jun-18 22:33N 22°29' E 113°55'4 0.4
2015-Jun-18 11:33N 22°25' E 113°52'18 9.2
2015-Jun-18 09:33N 22°15' E 113°36'2222.0
2015-Jun-18 08:33N 22°28' E 113°55'2115.8
2015-Jun-18 07:15N 22°15' E 113°38'2112.1
2015-Jun-18 05:33N 22°29' E 113°55'2120.2
2015-Jun-18 04:32N 22°15' E 113°38'1813.4
2015-Jun-18 03:11N 22°26' E 113°54'0 0.5
2015-Jun-18 02:34N 22°27' E 113°54'2116.0
2015-Jun-18 01:14N 22°14' E 113°35'1920.0
2015-Jun-18 00:16N 22°25' E 113°52'4 5.5
2015-Jun-17 23:33N 22°29' E 113°55'4 0.3
2015-Jun-17 11:32N 22°26' E 113°52'4 1.2
2015-Jun-17 08:33N 22°29' E 113°55'2015.8
2015-Jun-17 07:17N 22°16' E 113°38'8 8.4
2015-Jun-17 06:19N 22°20' E 113°46'1215.5
2015-Jun-17 05:33N 22°28' E 113°55'2221.6
2015-Jun-17 04:32N 22°14' E 113°36'2014.6
2015-Jun-17 03:11N 22°26' E 113°53'0 0.4
2015-Jun-17 02:33N 22°26' E 113°53'0 0.0
2015-Jun-17 00:13N 22°26' E 113°53'3 4.1
2015-Jun-16 23:33N 22°29' E 113°55'0 0.0
2015-Jun-16 22:33N 22°29' E 113°55'3 0.3
2015-Jun-16 11:33N 22°26' E 113°53'3 0.9
2015-Jun-16 08:33N 22°28' E 113°55'2015.6
2015-Jun-16 07:16N 22°16' E 113°38'1 1.4
2015-Jun-16 06:29N 22°16' E 113°39'1920.3
2015-Jun-16 05:33N 22°29' E 113°55'2019.0
2015-Jun-16 04:30N 22°16' E 113°38'1713.0
2015-Jun-16 03:12N 22°26' E 113°53'0 0.7
2015-Jun-16 02:34N 22°26' E 113°53'2015.1
2015-Jun-16 01:12N 22°14' E 113°35'  

Dump ship's entire track history